Time;durP1;ratioP1;P1;durP2;ratioP2;P2;SDS_P1;SDS_P2;PMS_P1;PMS_P2;Temp;Humidity;BMP_temperature;BMP_pressure;BME280_temperature;BME280_humidity;BME280_pressure;Samples;Min_cycle;Max_cycle;Signal;HPM_P1;HPM_P2
2022/05/21 00:01:27;;;;;;;9.88;5.85;;;487.30;1408.00;;;;;;5014162;28;20037;-76
2022/05/21 00:03:54;;;;;;;9.82;6.00;;;487.30;1408.00;;;;;;5014067;28;20014;-75
2022/05/21 00:06:20;;;;;;;18.77;6.32;;;487.30;1408.00;;;;;;5011637;28;20076;-75
2022/05/21 00:08:46;;;;;;;14.90;6.35;;;487.30;1408.00;;;;;;4995994;28;20553;-75
2022/05/21 00:11:11;;;;;;;12.43;6.10;;;487.30;1382.40;;;;;;4996319;28;20030;-76
2022/05/21 00:13:37;;;;;;;12.20;5.35;;;487.30;1408.00;;;;;;5013641;28;20030;-75
2022/05/21 00:16:05;;;;;;;14.43;6.43;;;487.20;1408.00;;;;;;5014030;28;20045;-76
2022/05/21 00:18:30;;;;;;;13.50;6.25;;;487.30;1408.00;;;;;;5013695;28;20359;-75
2022/05/21 00:20:56;;;;;;;12.65;6.30;;;487.30;1408.00;;;;;;5013808;28;20029;-75
2022/05/21 00:23:29;;;;;;;12.88;6.30;;;487.30;1408.00;;;;;;5013445;28;20046;-75
2022/05/21 00:26:00;;;;;;;13.10;5.65;;;487.30;1408.00;;;;;;4996069;28;20018;-76
2022/05/21 00:28:27;;;;;;;15.65;5.93;;;512.00;1408.00;;;;;;5011959;28;20604;-75
2022/05/21 00:30:53;;;;;;;13.35;5.05;;;512.30;1382.40;;;;;;4995891;28;20382;-76
2022/05/21 00:33:19;;;;;;;8.07;5.95;;;512.40;1382.40;;;;;;4996185;28;20030;-75
2022/05/21 00:35:48;;;;;;;13.60;5.72;;;512.30;1408.00;;;;;;4996138;28;20021;-75
2022/05/21 00:38:14;;;;;;;12.48;5.95;;;512.30;1408.00;;;;;;5013638;28;20501;-76
2022/05/21 00:40:40;;;;;;;15.80;5.50;;;512.20;1433.60;;;;;;5013236;28;20022;-77
2022/05/21 00:43:07;;;;;;;15.40;6.95;;;512.00;1459.20;;;;;;4995592;28;20532;-75
2022/05/21 00:45:33;;;;;;;17.00;6.10;;;487.30;1459.20;;;;;;5013441;28;20022;-75
2022/05/21 00:47:58;;;;;;;11.90;6.55;;;487.00;1459.20;;;;;;4995554;28;20497;-75
2022/05/21 00:50:29;;;;;;;16.60;6.65;;;486.90;1484.80;;;;;;5013460;28;20045;-75
2022/05/21 00:52:55;;;;;;;9.77;6.57;;;486.80;1510.40;;;;;;5012919;28;20049;-75
2022/05/21 00:55:32;;;;;;;12.85;6.90;;;486.80;1510.40;;;;;;4995513;28;20109;-75
2022/05/21 01:00:55;;;;;;;13.68;6.65;;;487.00;1510.40;;;;;;5012036;28;20021;-76
2022/05/21 01:03:21;;;;;;;11.23;6.07;;;487.10;1484.80;;;;;;5013140;28;20443;-75
2022/05/21 01:05:48;;;;;;;18.73;6.63;;;487.10;1484.80;;;;;;5012954;28;20109;-75
2022/05/21 01:08:15;;;;;;;20.45;7.10;;;487.10;1484.80;;;;;;5012792;28;20025;-75
2022/05/21 01:10:46;;;;;;;14.05;6.45;;;487.00;1484.80;;;;;;5012823;28;20520;-75
2022/05/21 01:13:15;;;;;;;17.75;6.85;;;487.00;1484.80;;;;;;5012809;28;20045;-75
2022/05/21 01:15:44;;;;;;;20.92;7.35;;;487.00;1484.80;;;;;;5012822;28;20381;-76
2022/05/21 01:18:10;;;;;;;22.95;7.18;;;487.00;1484.80;;;;;;4994940;28;20057;-76
2022/05/21 01:20:47;;;;;;;11.98;6.55;;;487.00;1484.80;;;;;;5012885;28;20458;-78
2022/05/21 01:23:15;;;;;;;13.10;6.28;;;487.00;1510.40;;;;;;5011040;28;20104;-76
2022/05/21 01:25:42;;;;;;;17.42;7.22;;;487.00;1510.40;;;;;;5012610;28;20101;-76
2022/05/21 01:28:12;;;;;;;17.77;6.97;;;487.10;1484.80;;;;;;5012820;28;20052;-75
2022/05/21 01:30:41;;;;;;;19.67;7.07;;;487.10;1510.40;;;;;;5012548;28;20026;-76
2022/05/21 01:33:09;;;;;;;21.40;6.75;;;487.30;1484.80;;;;;;5010525;28;20021;-76
2022/05/21 01:35:36;;;;;;;14.85;5.68;;;512.00;1484.80;;;;;;5012229;28;20458;-75
2022/05/21 01:38:02;;;;;;;10.20;5.88;;;487.30;1484.80;;;;;;5012441;28;20056;-74
2022/05/21 01:40:29;;;;;;;11.65;6.47;;;512.00;1510.40;;;;;;5011912;28;20032;-77
2022/05/21 01:45:40;;;;;;;12.00;7.13;;;487.10;1536.00;;;;;;5012073;28;20048;-75
2022/05/21 01:48:06;;;;;;;15.02;6.18;;;487.00;1536.00;;;;;;5012098;28;20025;-76
2022/05/21 01:50:33;;;;;;;10.82;6.07;;;486.90;1536.00;;;;;;5012511;28;20109;-75
2022/05/21 01:52:59;;;;;;;15.30;6.30;;;486.90;1561.60;;;;;;5011968;28;20022;-75
2022/05/21 01:55:25;;;;;;;13.80;6.50;;;487.00;1536.00;;;;;;5009729;28;20030;-75
2022/05/21 01:57:51;;;;;;;13.15;6.38;;;486.80;1561.60;;;;;;5011864;28;20040;-75
2022/05/21 02:00:18;;;;;;;13.32;5.97;;;486.80;1561.60;;;;;;5012068;28;20057;-75
2022/05/21 02:02:44;;;;;;;11.88;5.93;;;486.80;1561.60;;;;;;5012134;28;20062;-75
2022/05/21 02:05:10;;;;;;;14.95;6.03;;;486.80;1561.60;;;;;;4994365;28;20054;-75
2022/05/21 02:07:35;;;;;;;16.50;6.78;;;486.70;1561.60;;;;;;5012262;28;20576;-76
2022/05/21 02:10:03;;;;;;;15.77;6.03;;;486.60;1561.60;;;;;;5011752;28;20014;-75
2022/05/21 02:12:28;;;;;;;17.30;6.38;;;486.60;1587.20;;;;;;5012052;28;20095;-75
2022/05/21 02:14:55;;;;;;;13.68;5.88;;;486.70;1587.20;;;;;;5011984;28;20498;-75
2022/05/21 02:17:21;;;;;;;13.77;5.57;;;486.60;1587.20;;;;;;5011986;28;20485;-75
2022/05/21 02:19:47;;;;;;;13.68;5.65;;;486.70;1587.20;;;;;;5009326;28;20493;-76
2022/05/21 02:22:13;;;;;;;10.75;6.25;;;486.70;1561.60;;;;;;5011725;28;20046;-75
2022/05/21 02:24:39;;;;;;;9.88;5.35;;;486.70;1587.20;;;;;;4993921;28;20036;-76
2022/05/21 02:27:12;;;;;;;12.27;5.55;;;486.80;1587.20;;;;;;5011702;28;20422;-76
2022/05/21 02:29:37;;;;;;;14.30;5.57;;;486.70;1587.20;;;;;;5011957;28;20535;-75
2022/05/21 02:32:04;;;;;;;14.55;6.05;;;486.60;1587.20;;;;;;5011628;28;20017;-76
2022/05/21 02:34:31;;;;;;;13.80;6.78;;;486.60;1587.20;;;;;;4994426;28;20025;-76
2022/05/21 02:39:41;;;;;;;12.95;6.13;;;486.40;1612.80;;;;;;5011081;28;20038;-75
2022/05/21 02:42:43;;;;;;;12.05;5.88;;;486.40;1638.40;;;;;;5011909;28;20022;-75
2022/05/21 02:44:53;;;;;;;10.60;5.82;;;461.70;1638.40;;;;;;5009712;28;20049;-76
2022/05/21 02:47:19;;;;;;;13.85;6.72;;;486.40;1638.40;;;;;;4994357;28;20545;-76
2022/05/21 02:49:44;;;;;;;15.15;6.57;;;486.50;1638.40;;;;;;5011548;28;20018;-76
2022/05/21 02:52:10;;;;;;;11.63;5.82;;;486.50;1638.40;;;;;;4994559;28;20033;-76
2022/05/21 02:54:36;;;;;;;10.70;6.00;;;486.50;1638.40;;;;;;5015162;28;20025;-76
2022/05/21 02:57:03;;;;;;;14.23;5.88;;;486.50;1664.00;;;;;;5015333;28;20030;-77
2022/05/21 02:59:29;;;;;;;15.90;6.78;;;486.50;1664.00;;;;;;5012888;28;20014;-75
2022/05/21 03:01:55;;;;;;;15.30;6.22;;;486.40;1689.60;;;;;;5015343;28;20017;-76
2022/05/21 03:04:21;;;;;;;13.70;6.05;;;461.70;1715.20;;;;;;5015355;28;20034;-76
2022/05/21 03:06:47;;;;;;;14.70;6.05;;;461.50;1740.80;;;;;;5015029;28;20025;-75
2022/05/21 03:11:57;;;;;;;15.05;6.45;;;461.30;1766.40;;;;;;5014271;28;20100;-75
2022/05/21 03:14:23;;;;;;;12.05;5.85;;;461.20;1792.00;;;;;;5014859;28;20025;-75
2022/05/21 03:16:49;;;;;;;10.63;5.68;;;461.10;1817.60;;;;;;5015012;28;20038;-76
2022/05/21 03:19:15;;;;;;;14.55;6.35;;;461.20;1817.60;;;;;;5014891;28;20022;-75
2022/05/21 03:21:40;;;;;;;14.43;7.03;;;461.40;1817.60;;;;;;5015000;28;20028;-76
2022/05/21 03:24:06;;;;;;;13.05;6.13;;;461.40;1817.60;;;;;;5014708;28;20049;-75
2022/05/21 03:26:32;;;;;;;17.98;6.80;;;461.40;1843.20;;;;;;5014792;28;20022;-74
2022/05/21 03:28:58;;;;;;;14.27;6.78;;;461.20;1843.20;;;;;;5015232;28;20025;-76
2022/05/21 03:31:24;;;;;;;13.50;6.55;;;461.20;1868.80;;;;;;5014911;28;20467;-73
2022/05/21 03:33:50;;;;;;;14.95;7.32;;;461.20;1894.40;;;;;;5014509;28;20033;-75
2022/05/21 03:36:16;;;;;;;14.98;7.40;;;461.20;1894.40;;;;;;5014777;28;20026;-74
2022/05/21 03:38:41;;;;;;;10.65;5.90;;;461.00;1945.60;;;;;;5014458;28;20474;-76
2022/05/21 03:41:08;;;;;;;15.55;6.75;;;461.10;1945.60;;;;;;5014417;28;20025;-74
2022/05/21 03:43:33;;;;;;;13.93;6.30;;;461.00;1945.60;;;;;;5014604;28;20018;-75
2022/05/21 03:45:59;;;;;;;18.90;7.40;;;461.00;1971.20;;;;;;5014404;28;20594;-74
2022/05/21 03:48:25;;;;;;;16.55;6.55;;;461.10;1971.20;;;;;;5014586;28;20030;-75
2022/05/21 03:50:51;;;;;;;12.65;6.38;;;460.90;1996.80;;;;;;5014126;28;20481;-74
2022/05/21 03:53:17;;;;;;;13.73;6.60;;;460.90;2022.40;;;;;;5014517;28;20371;-75
2022/05/21 03:55:44;;;;;;;13.80;6.63;;;460.90;2048.00;;;;;;5014030;28;20485;-74
2022/05/21 03:58:10;;;;;;;13.95;6.75;;;460.90;2048.00;;;;;;5014183;28;20117;-74
2022/05/21 04:00:38;;;;;;;13.65;7.28;;;460.80;2073.60;;;;;;5013990;28;20018;-74
2022/05/21 04:03:04;;;;;;;15.13;6.43;;;460.90;2073.60;;;;;;5014267;28;20025;-75
2022/05/21 04:05:30;;;;;;;12.73;7.30;;;461.00;2073.60;;;;;;5013651;28;20017;-74
2022/05/21 04:07:56;;;;;;;15.27;6.28;;;460.90;2099.20;;;;;;5013966;28;20025;-75
2022/05/21 04:10:22;;;;;;;14.13;6.75;;;461.00;2073.60;;;;;;5014039;28;20065;-75
2022/05/21 04:12:48;;;;;;;12.38;6.40;;;461.10;2073.60;;;;;;5014069;28;20026;-74
2022/05/21 04:15:14;;;;;;;15.27;7.05;;;461.10;2099.20;;;;;;5014435;28;20104;-74
2022/05/21 04:17:40;;;;;;;14.85;7.93;;;461.10;2099.20;;;;;;5014077;28;20034;-74
2022/05/21 04:20:09;;;;;;;16.80;7.78;;;461.10;2099.20;;;;;;5014481;28;20029;-74
2022/05/21 04:22:36;;;;;;;16.75;6.65;;;461.20;2124.80;;;;;;5013916;28;20053;-74
2022/05/21 04:25:01;;;;;;;15.52;7.55;;;461.40;2099.20;;;;;;5014197;28;20018;-74
2022/05/21 04:27:27;;;;;;;12.82;6.63;;;461.40;2099.20;;;;;;5013980;28;20030;-75
2022/05/21 04:29:53;;;;;;;15.82;5.93;;;461.40;2099.20;;;;;;5013499;28;20057;-74
2022/05/21 04:32:19;;;;;;;12.25;6.70;;;461.40;2099.20;;;;;;5013733;28;20033;-74
2022/05/21 04:34:45;;;;;;;12.40;6.25;;;461.50;2124.80;;;;;;5013422;28;20156;-75
2022/05/21 04:37:11;;;;;;;11.30;7.15;;;461.70;2099.20;;;;;;5013564;28;20030;-74
2022/05/21 04:39:37;;;;;;;18.70;7.22;;;461.70;2073.60;;;;;;5013320;28;20033;-76
2022/05/21 04:42:03;;;;;;;15.82;6.88;;;461.70;2073.60;;;;;;5013742;28;20398;-74
2022/05/21 04:44:34;;;;;;;10.65;5.97;;;461.70;2099.20;;;;;;5013808;28;20104;-76
2022/05/21 04:47:00;;;;;;;18.40;6.47;;;486.40;2124.80;;;;;;5014126;28;20080;-74
2022/05/21 04:49:26;;;;;;;20.10;6.88;;;486.40;2124.80;;;;;;5013679;28;20477;-74
2022/05/21 04:51:52;;;;;;;14.57;7.18;;;486.50;2073.60;;;;;;5013451;28;20060;-77
2022/05/21 04:54:18;;;;;;;12.20;7.15;;;486.60;2073.60;;;;;;4995750;28;20486;-75
2022/05/21 04:56:44;;;;;;;14.95;7.03;;;486.80;2048.00;;;;;;4995817;28;20033;-78
2022/05/21 04:59:11;;;;;;;16.52;6.13;;;487.00;2073.60;;;;;;5013730;28;20018;-75
2022/05/21 05:01:38;;;;;;;11.98;7.03;;;487.00;2048.00;;;;;;5013407;28;20022;-75
2022/05/21 05:04:04;;;;;;;13.75;6.85;;;487.00;2073.60;;;;;;4996061;28;20394;-73
2022/05/21 05:06:31;;;;;;;16.35;6.85;;;487.20;2073.60;;;;;;4995911;28;20036;-78
2022/05/21 05:08:57;;;;;;;12.35;6.72;;;487.30;2048.00;;;;;;4995263;28;20021;-76
2022/05/21 05:11:23;;;;;;;12.18;6.82;;;487.30;2048.00;;;;;;5012739;28;20394;-75
2022/05/21 05:13:49;;;;;;;16.00;6.47;;;487.30;2073.60;;;;;;5013142;28;20025;-77
2022/05/21 05:16:15;;;;;;;18.42;7.45;;;512.40;2099.20;;;;;;5012334;28;20030;-79
2022/05/21 05:18:41;;;;;;;10.40;6.28;;;512.10;2073.60;;;;;;4995477;28;20030;-76
2022/05/21 05:21:07;;;;;;;12.20;6.93;;;512.10;2048.00;;;;;;4995377;28;20371;-76
2022/05/21 05:23:33;;;;;;;15.13;7.57;;;512.20;2048.00;;;;;;5012397;28;20061;-75
2022/05/21 05:25:59;;;;;;;11.85;7.47;;;512.20;2048.00;;;;;;5012846;28;20448;-76
2022/05/21 05:28:27;;;;;;;18.35;7.38;;;512.40;2048.00;;;;;;4995051;28;20033;-74
2022/05/21 05:30:53;;;;;;;15.50;7.47;;;512.40;2073.60;;;;;;5012674;28;20037;-75
2022/05/21 05:33:19;;;;;;;12.43;6.25;;;512.50;2073.60;;;;;;5012493;28;20030;-75
2022/05/21 05:35:48;;;;;;;15.60;7.45;;;512.50;2073.60;;;;;;5012685;28;20382;-74
2022/05/21 05:38:15;;;;;;;12.68;7.63;;;512.60;2073.60;;;;;;5012334;28;20044;-76
2022/05/21 05:40:45;;;;;;;13.13;6.53;;;512.80;2073.60;;;;;;5012472;28;20466;-76
2022/05/21 05:43:12;;;;;;;11.60;6.18;;;512.90;2048.00;;;;;;5012696;28;20030;-74
2022/05/21 05:45:38;;;;;;;12.43;7.18;;;537.60;2124.80;;;;;;4994328;28;20034;-75
2022/05/21 05:48:04;;;;;;;14.18;7.25;;;537.70;2124.80;;;;;;5012954;28;20022;-77
2022/05/21 05:50:31;;;;;;;14.88;7.00;;;537.70;2124.80;;;;;;5012119;28;20022;-76
2022/05/21 05:53:07;;;;;;;14.95;6.70;;;537.90;2099.20;;;;;;4994931;28;20050;-76
2022/05/21 05:55:34;;;;;;;;;;;538.00;2099.20;;;;;;5010982;28;20390;-78
2022/05/21 05:59:48;;;;;;;17.60;7.05;;;538.10;2124.80;;;;;;5012764;28;20326;-79
2022/05/21 06:00:46;;;;;;;19.10;6.93;;;538.10;2124.80;;;;;;5012758;28;20030;-81
2022/05/21 06:03:11;;;;;;;18.33;6.50;;;538.20;2176.00;;;;;;5012334;28;20036;-75
2022/05/21 06:05:37;;;;;;;15.70;6.82;;;538.30;2124.80;;;;;;4994173;28;20038;-77
2022/05/21 06:08:05;;;;;;;22.02;6.22;;;538.40;1996.80;;;;;;4995035;28;20018;-77
2022/05/21 06:10:37;;;;;;;21.75;7.50;;;563.20;2022.40;;;;;;5012686;28;20073;-76
2022/05/21 06:13:04;;;;;;;15.15;5.85;;;563.30;2048.00;;;;;;5012559;28;20080;-82
2022/05/21 06:15:31;;;;;;;18.45;6.25;;;563.60;1894.40;;;;;;5012659;28;20018;-76
2022/05/21 06:17:57;;;;;;;13.88;6.28;;;563.70;1868.80;;;;;;4994902;28;20402;-79
2022/05/21 06:20:27;;;;;;;18.00;5.53;;;563.80;1996.80;;;;;;5012023;28;20033;-75
2022/05/21 06:22:53;;;;;;;10.15;5.72;;;563.90;1894.40;;;;;;5012248;28;20196;-76
2022/05/21 06:25:21;;;;;;;13.63;6.43;;;564.10;1894.40;;;;;;5012299;28;20026;-76
2022/05/21 06:27:52;;;;;;;11.15;6.13;;;564.10;1868.80;;;;;;5014130;28;20104;-76
2022/05/21 06:30:20;;;;;;;8.45;4.57;;;588.80;1868.80;;;;;;5016633;28;20481;-77
2022/05/21 06:32:46;;;;;;;13.15;5.75;;;588.80;1920.00;;;;;;5016493;28;20101;-82
2022/05/21 06:35:13;;;;;;;9.52;5.35;;;588.90;1894.40;;;;;;4999105;28;20589;-78
2022/05/21 06:37:39;;;;;;;10.48;5.90;;;589.00;1894.40;;;;;;5016480;28;20049;-79
2022/05/21 06:40:06;;;;;;;15.70;6.45;;;589.10;1920.00;;;;;;5016814;28;20018;-79
2022/05/21 06:42:32;;;;;;;9.65;5.57;;;589.30;1868.80;;;;;;5016382;28;20104;-78
2022/05/21 06:44:59;;;;;;;11.95;6.28;;;589.40;1817.60;;;;;;5016352;28;20101;-77
2022/05/21 06:47:25;;;;;;;14.73;6.65;;;589.40;1817.60;;;;;;4998185;28;20046;-75
2022/05/21 06:49:59;;;;;;;15.05;7.78;;;589.50;1817.60;;;;;;5016269;28;20026;-76
2022/05/21 06:52:26;;;;;;;14.10;6.85;;;589.70;1868.80;;;;;;5015901;28;20076;-76
2022/05/21 06:54:53;;;;;;;10.35;5.78;;;589.70;1817.60;;;;;;5015851;28;20025;-77
2022/05/21 06:57:19;;;;;;;11.05;5.53;;;589.70;1868.80;;;;;;5015946;28;20088;-76
2022/05/21 06:59:45;;;;;;;11.57;5.97;;;614.50;1843.20;;;;;;5015886;28;20249;-77
2022/05/21 07:02:11;;;;;;;10.13;5.10;;;614.50;1817.60;;;;;;5015648;28;20034;-76
2022/05/21 07:07:33;;;;;;;10.95;5.05;;;614.80;1843.20;;;;;;5015644;28;20117;-76
2022/05/21 07:10:01;;;;;;;11.45;5.90;;;614.80;1817.60;;;;;;4997906;28;20034;-76
2022/05/21 07:12:27;;;;;;;11.00;5.13;;;614.90;1817.60;;;;;;5015061;28;20030;-76
2022/05/21 07:14:53;;;;;;;9.48;5.15;;;615.00;1817.60;;;;;;5015247;28;20061;-78
2022/05/21 07:17:19;;;;;;;12.77;5.20;;;615.20;1792.00;;;;;;4997165;28;20046;-80
2022/05/21 07:19:45;;;;;;;9.93;5.22;;;615.30;1817.60;;;;;;4997955;28;20104;-79
2022/05/21 07:22:10;;;;;;;8.60;4.45;;;640.00;1792.00;;;;;;4996923;28;20073;-80
2022/05/21 07:24:42;;;;;;;12.40;5.50;;;640.10;1792.00;;;;;;4997338;28;20046;-77
2022/05/21 07:27:14;;;;;;;7.68;4.97;;;640.20;1740.80;;;;;;5015405;28;20040;-76
2022/05/21 07:29:40;;;;;;;13.27;5.40;;;640.20;1740.80;;;;;;5015252;28;20018;-78
2022/05/21 07:32:15;;;;;;;8.20;4.55;;;640.40;1740.80;;;;;;5015414;28;20072;-76
2022/05/21 07:34:41;;;;;;;6.38;4.28;;;640.60;1715.20;;;;;;5012454;28;20469;-76
2022/05/21 07:37:06;;;;;;;8.30;4.93;;;640.70;1689.60;;;;;;5014800;28;20045;-76
2022/05/21 07:39:32;;;;;;;14.73;4.65;;;640.90;1664.00;;;;;;5013604;28;20032;-77
2022/05/21 07:41:58;;;;;;;11.77;4.80;;;665.60;1664.00;;;;;;4996949;28;20589;-77
2022/05/21 07:44:24;;;;;;;9.70;4.82;;;665.60;1638.40;;;;;;5014581;28;20029;-76
2022/05/21 07:46:50;;;;;;;8.75;3.80;;;665.60;1638.40;;;;;;5014419;28;20018;-76
2022/05/21 07:49:16;;;;;;;7.10;4.68;;;665.70;1664.00;;;;;;5014819;28;20382;-77
2022/05/21 07:51:42;;;;;;;12.45;5.03;;;665.90;1689.60;;;;;;5014599;28;20448;-77
2022/05/21 07:54:07;;;;;;;9.88;4.43;;;665.90;1664.00;;;;;;4996541;28;20109;-75
2022/05/21 07:56:33;;;;;;;5.95;4.10;;;666.00;1638.40;;;;;;5014290;28;20030;-77
2022/05/21 07:58:59;;;;;;;10.00;4.78;;;666.10;1638.40;;;;;;4996351;28;20034;-76
2022/05/21 08:01:25;;;;;;;5.82;4.00;;;666.20;1612.80;;;;;;5014001;28;20167;-76
2022/05/21 08:03:51;;;;;;;10.02;4.60;;;666.30;1638.40;;;;;;5014163;28;20065;-76
2022/05/21 08:06:17;;;;;;;12.32;4.90;;;666.50;1664.00;;;;;;5014406;28;20022;-77
2022/05/21 08:08:44;;;;;;;9.82;4.95;;;691.20;1638.40;;;;;;5014838;28;20057;-81
2022/05/21 08:11:10;;;;;;;6.75;4.53;;;666.40;1664.00;;;;;;4995890;28;20030;-80
2022/05/21 08:13:36;;;;;;;7.65;4.40;;;666.50;1638.40;;;;;;5013953;28;20054;-78
2022/05/21 08:16:02;;;;;;;9.23;4.85;;;666.50;1587.20;;;;;;5014125;28;20054;-78
2022/05/21 08:18:28;;;;;;;8.40;4.60;;;691.20;1612.80;;;;;;4991167;28;20117;-80
2022/05/21 08:20:55;;;;;;;7.97;4.20;;;691.20;1612.80;;;;;;4996386;28;20029;-80
2022/05/21 08:28:50;;;;;;;12.82;4.97;;;691.40;1612.80;;;;;;5014000;28;20037;-80
2022/05/21 08:31:16;;;;;;;9.57;4.78;;;691.40;1612.80;;;;;;4996266;28;20030;-79
2022/05/21 08:33:42;;;;;;;9.77;4.68;;;691.60;1612.80;;;;;;5011663;28;20046;-81
2022/05/21 08:36:09;;;;;;;8.52;4.85;;;691.60;1612.80;;;;;;5013890;28;20029;-79
2022/05/21 08:38:34;;;;;;;7.72;4.85;;;691.70;1587.20;;;;;;4996868;28;20034;-82
2022/05/21 08:41:10;;;;;;;12.00;5.00;;;691.70;1612.80;;;;;;5014113;28;20093;-79
2022/05/21 08:43:45;;;;;;;;;;;691.90;1612.80;;;;;;5014684;28;20041;-81
2022/05/21 08:46:43;;;;;;;13.15;4.43;;;691.90;1612.80;;;;;;4996509;28;19996;-80
2022/05/21 08:49:24;;;;;;;12.80;4.90;;;692.00;1612.80;;;;;;4996623;28;20029;-81
2022/05/21 08:51:53;;;;;;;10.07;5.93;;;;;;;;;;4995599;28;20070;-81
2022/05/21 08:54:27;;;;;;;9.68;4.80;;;717.10;1612.80;;;;;;4995879;28;20057;-82
2022/05/21 08:56:55;;;;;;;9.30;4.43;;;717.00;1536.00;;;;;;5013617;28;20034;-81
2022/05/21 08:59:29;;;;;;;16.58;4.60;;;717.00;1561.60;;;;;;5012926;28;20030;-81
2022/05/21 09:01:54;;;;;;;12.77;4.88;;;717.20;1587.20;;;;;;5013953;28;20026;-81
2022/05/21 09:04:23;;;;;;;11.05;4.82;;;717.30;1587.20;;;;;;5013523;28;20524;-80
2022/05/21 09:07:00;;;;;;;11.60;4.13;;;717.60;1536.00;;;;;;4996077;28;20034;-80
2022/05/21 09:10:13;;;;;;;5.90;4.00;;;717.70;1536.00;;;;;;5013553;28;20030;-79
2022/05/21 09:12:56;;;;;;;11.50;4.53;;;717.70;1510.40;;;;;;5006267;28;20038;-80
2022/05/21 09:18:09;;;;;;;10.73;4.72;;;742.50;1510.40;;;;;;5011816;28;20087;-80
2022/05/21 09:20:52;;;;;;;13.45;5.47;;;742.80;1510.40;;;;;;4995713;28;20463;-81
2022/05/21 09:23:17;;;;;;;7.57;4.28;;;742.90;1484.80;;;;;;5013265;28;20054;-79
2022/05/21 09:25:43;;;;;;;10.77;4.72;;;743.00;1561.60;;;;;;5013307;28;20032;-79
2022/05/21 09:28:11;;;;;;;13.95;4.95;;;743.10;1484.80;;;;;;4995802;28;20363;-79
2022/05/21 09:30:54;;;;;;;7.68;4.13;;;743.20;1484.80;;;;;;4995850;28;20132;-80
2022/05/21 09:33:27;;;;;;;6.20;4.30;;;743.30;1433.60;;;;;;5013180;28;20114;-80
2022/05/21 09:35:58;;;;;;;15.30;5.07;;;768.00;1382.40;;;;;;4995337;28;20080;-80
2022/05/21 09:38:32;;;;;;;9.13;4.50;;;743.30;1382.40;;;;;;4995654;28;20038;-80
2022/05/21 09:41:15;;;;;;;6.30;4.63;;;743.20;1433.60;;;;;;4994815;28;20066;-80
2022/05/21 09:46:33;;;;;;;10.45;5.00;;;743.10;1459.20;;;;;;5010358;28;20041;-79
2022/05/21 09:49:28;;;;;;;9.07;5.72;;;743.00;1484.80;;;;;;4995408;28;20022;-80
2022/05/21 09:52:04;;;;;;;10.95;5.95;;;743.10;1484.80;;;;;;5012665;28;20097;-79
2022/05/21 09:54:36;;;;;;;9.52;4.75;;;768.00;1433.60;;;;;;4995074;28;20045;-79
2022/05/21 09:57:03;;;;;;;11.18;4.38;;;768.40;1382.40;;;;;;4995195;28;20132;-80
2022/05/21 09:59:33;;;;;;;11.23;4.35;;;768.20;1382.40;;;;;;5012591;28;20466;-80
2022/05/21 10:02:13;;;;;;;9.30;4.50;;;768.70;1356.80;;;;;;4994734;28;20033;-81
2022/05/21 10:05:02;;;;;;;9.95;5.20;;;768.70;1356.80;;;;;;4995060;28;20120;-80
2022/05/21 10:13:23;;;;;;;9.00;3.70;;;768.80;1331.20;;;;;;5012551;28;19912;-80
2022/05/21 10:15:57;;;;;;;9.65;4.20;;;768.60;1331.20;;;;;;4995143;28;20030;-80
2022/05/21 10:18:35;;;;;;;8.75;3.25;;;768.40;1305.60;;;;;;4994841;28;20030;-80
2022/05/21 10:21:15;;;;;;;6.70;3.25;;;768.30;1305.60;;;;;;4994634;28;20501;-81
2022/05/21 10:24:06;;;;;;;5.38;3.63;;;768.10;1331.20;;;;;;4993324;28;20050;-79
2022/05/21 10:27:03;;;;;;;6.88;3.90;;;768.10;1356.80;;;;;;4991893;28;20855;-80
2022/05/21 10:29:41;;;;;;;5.97;3.65;;;768.00;1331.20;;;;;;4994127;28;20022;-80
2022/05/21 10:32:32;;;;;;;5.95;3.47;;;743.30;1331.20;;;;;;5011829;28;20018;-79
2022/05/21 10:35:29;;;;;;;6.80;3.80;;;743.20;1408.00;;;;;;4992677;28;20134;-81
2022/05/21 10:38:16;;;;;;;9.32;3.90;;;743.20;1382.40;;;;;;4951560;28;20116;-81
2022/05/21 10:41:00;;;;;;;8.05;3.80;;;743.30;1382.40;;;;;;4950109;29;20034;-80
2022/05/21 10:43:45;;;;;;;8.30;4.38;;;768.00;1382.40;;;;;;4934403;29;20027;-80
2022/05/21 10:46:42;;;;;;;11.18;3.95;;;768.00;1382.40;;;;;;4951950;29;20038;-80
2022/05/21 10:49:29;;;;;;;7.75;3.63;;;768.00;1382.40;;;;;;4916238;29;20047;-82
2022/05/21 10:52:31;;;;;;;9.00;3.35;;;768.10;1382.40;;;;;;4951840;29;20046;-80
2022/05/21 10:55:38;;;;;;;11.15;4.38;;;768.00;1356.80;;;;;;4935541;29;20035;-81
2022/05/21 10:58:22;;;;;;;;;;;743.30;1382.40;;;;;;4857675;29;20045;-80
2022/05/21 11:01:05;;;;;;;5.95;3.47;;;768.00;1356.80;;;;;;4857301;29;20277;-79
2022/05/21 11:03:44;;;;;;;7.93;2.92;;;768.30;1331.20;;;;;;4857624;29;20064;-79
2022/05/21 11:06:46;;;;;;;8.73;3.63;;;768.80;1305.60;;;;;;4842392;29;20116;-80
2022/05/21 11:09:20;;;;;;;6.63;3.05;;;794.00;1305.60;;;;;;4857775;29;20113;-80
2022/05/21 11:11:58;;;;;;;6.70;2.45;;;794.40;1280.00;;;;;;4857470;29;20136;-78
2022/05/21 11:15:01;;;;;;;6.70;2.50;;;819.30;1254.40;;;;;;4880870;29;20056;-80
2022/05/21 11:17:38;;;;;;;6.68;3.53;;;819.40;1228.80;;;;;;4901217;29;20396;-79
2022/05/21 11:20:11;;;;;;;13.18;2.90;;;819.50;1228.80;;;;;;4916910;29;20625;-80
2022/05/21 11:22:54;;;;;;;10.05;2.60;;;819.80;1254.40;;;;;;4916657;29;20135;-80
2022/05/21 11:25:43;;;;;;;6.18;2.58;;;819.80;1203.20;;;;;;4916429;29;20069;-80
2022/05/21 11:28:27;;;;;;;4.75;2.55;;;820.00;1177.60;;;;;;4904134;29;20543;-82
2022/05/21 11:31:05;;;;;;;4.18;2.47;;;844.90;1177.60;;;;;;4914878;29;20039;-82
2022/05/21 11:39:14;;;;;;;4.68;2.45;;;844.90;1152.00;;;;;;5012702;28;20028;-81
2022/05/21 11:41:58;;;;;;;3.47;2.05;;;844.90;1126.40;;;;;;4996568;28;20057;-82
2022/05/21 11:44:56;;;;;;;4.57;2.30;;;845.00;1100.80;;;;;;4997235;28;20026;-82
2022/05/21 11:47:21;;;;;;;6.18;2.20;;;845.10;1100.80;;;;;;5014193;28;20385;-82
2022/05/21 11:50:10;;;;;;;7.40;2.70;;;845.20;1100.80;;;;;;4996859;28;20026;-82
2022/05/21 11:52:36;;;;;;;7.60;2.20;;;845.20;1126.40;;;;;;5013182;28;20466;-81
2022/05/21 11:55:07;;;;;;;8.60;2.08;;;845.50;1100.80;;;;;;4996872;28;20178;-81
2022/05/21 11:57:57;;;;;;;4.80;2.22;;;845.60;1075.20;;;;;;4996691;28;20470;-81
2022/05/21 12:00:25;;;;;;;3.92;2.28;;;845.50;1075.20;;;;;;4996197;28;20097;-81
2022/05/21 12:02:54;;;;;;;5.88;2.35;;;845.70;1049.60;;;;;;4996893;28;20022;-82
2022/05/21 12:05:46;;;;;;;5.15;2.47;;;870.40;1049.60;;;;;;4996330;28;20026;-82
2022/05/21 12:08:20;;;;;;;10.00;2.15;;;845.60;1100.80;;;;;;4937700;29;20035;-80
2022/05/21 12:10:57;;;;;;;8.57;2.63;;;845.50;1049.60;;;;;;4953848;29;20031;-82
2022/05/21 12:13:35;;;;;;;4.10;2.10;;;870.40;1075.20;;;;;;4953484;29;20031;-81
2022/05/21 12:16:20;;;;;;;4.38;2.28;;;870.40;1049.60;;;;;;4953373;29;20039;-80
2022/05/21 12:18:50;;;;;;;6.68;2.42;;;845.60;1049.60;;;;;;4953635;29;20043;-81
2022/05/21 12:21:37;;;;;;;5.88;2.83;;;845.70;1049.60;;;;;;4937483;29;20106;-80
2022/05/21 12:24:20;;;;;;;5.18;2.53;;;870.40;1075.20;;;;;;4918285;29;20504;-80
2022/05/21 12:26:47;;;;;;;7.97;2.60;;;870.50;1075.20;;;;;;4933736;29;20074;-81
2022/05/21 12:29:41;;;;;;;9.55;2.53;;;870.50;1075.20;;;;;;4934095;29;20032;-80
2022/05/21 12:32:17;;;;;;;8.30;2.80;;;845.70;1100.80;;;;;;4930445;29;20130;-81
2022/05/21 12:35:09;;;;;;;4.45;2.33;;;870.50;1075.20;;;;;;4918445;29;20036;-81
2022/05/21 12:37:44;;;;;;;6.22;2.65;;;870.50;1075.20;;;;;;4929466;28;20039;-82
2022/05/21 12:40:18;;;;;;;;;;;870.50;1075.20;;;;;;4934417;29;20020;-80
2022/05/21 12:42:54;;;;;;;4.25;2.65;;;870.50;1049.60;;;;;;4934011;29;19919;-80
2022/05/21 12:45:53;;;;;;;6.00;2.55;;;870.50;1100.80;;;;;;4950147;28;20054;-80
2022/05/21 12:48:18;;;;;;;8.43;3.10;;;870.50;1075.20;;;;;;4952540;29;20468;-81
2022/05/21 12:50:59;;;;;;;5.88;2.40;;;870.50;1075.20;;;;;;4952814;28;20070;-80
2022/05/21 12:53:44;;;;;;;5.93;2.67;;;870.40;1075.20;;;;;;4952977;29;20036;-81
2022/05/21 12:56:12;;;;;;;7.43;3.05;;;845.40;1100.80;;;;;;4950421;29;20019;-80
2022/05/21 12:58:38;;;;;;;5.75;2.60;;;845.40;1100.80;;;;;;4952063;29;20051;-81
2022/05/21 13:01:05;;;;;;;5.03;2.58;;;845.40;1126.40;;;;;;4952896;29;20404;-80
2022/05/21 13:03:33;;;;;;;8.18;2.85;;;845.70;1126.40;;;;;;4968637;28;20087;-81
2022/05/21 13:06:05;;;;;;;4.63;2.38;;;870.60;1100.80;;;;;;4952611;29;20115;-80
2022/05/21 13:08:34;;;;;;;6.20;2.47;;;870.50;1100.80;;;;;;4952379;29;20058;-79